createdAt,value
2022-11-09T00:01:48.094Z,8.80
2022-11-09T00:04:17.238Z,8.80
2022-11-09T00:06:45.162Z,8.80
2022-11-09T00:09:12.987Z,8.70
2022-11-09T00:11:40.770Z,8.70
2022-11-09T00:14:14.156Z,8.70
2022-11-09T00:16:41.937Z,8.80
2022-11-09T00:19:09.764Z,8.80
2022-11-09T00:21:38.867Z,8.80
2022-11-09T00:24:07.467Z,8.70
2022-11-09T00:26:35.252Z,8.70
2022-11-09T00:29:03.041Z,8.60
2022-11-09T00:31:30.819Z,8.60
2022-11-09T00:33:59.072Z,8.50
2022-11-09T00:36:28.457Z,8.40
2022-11-09T00:38:59.730Z,8.40
2022-11-09T00:41:28.103Z,8.40
2022-11-09T00:43:55.960Z,8.30
2022-11-09T00:46:23.942Z,8.30
2022-11-09T00:48:52.069Z,8.20
2022-11-09T00:51:19.907Z,8.20
2022-11-09T00:53:48.170Z,8.20
2022-11-09T00:56:17.299Z,8.30
2022-11-09T00:58:45.046Z,8.30
2022-11-09T01:01:14.944Z,8.40
2022-11-09T01:03:43.710Z,8.50
2022-11-09T01:06:16.212Z,8.50
2022-11-09T01:08:44.500Z,8.50
2022-11-09T01:11:12.664Z,8.50
2022-11-09T01:13:41.934Z,8.50
2022-11-09T01:16:12.266Z,8.40
2022-11-09T01:18:40.523Z,8.30
2022-11-09T01:21:11.138Z,8.30
2022-11-09T01:23:39.078Z,8.20
2022-11-09T01:26:09.515Z,8.30
2022-11-09T01:28:37.763Z,8.20
2022-11-09T01:31:12.035Z,8.20
2022-11-09T01:33:40.126Z,8.30
2022-11-09T01:36:10.836Z,8.20
2022-11-09T01:38:39.158Z,8.30
2022-11-09T01:41:08.173Z,8.30
2022-11-09T01:43:36.440Z,8.30
2022-11-09T01:46:12.734Z,8.40
2022-11-09T01:48:45.146Z,8.40
2022-11-09T01:51:17.203Z,8.40
2022-11-09T01:53:49.955Z,8.40
2022-11-09T01:56:19.000Z,8.50
2022-11-09T01:58:51.787Z,8.50
2022-11-09T02:01:21.646Z,8.50
2022-11-09T02:03:53.239Z,8.60
2022-11-09T02:06:23.192Z,8.70
2022-11-09T02:08:54.295Z,8.70
2022-11-09T02:11:23.948Z,8.80
2022-11-09T02:13:57.776Z,8.80
2022-11-09T02:16:28.459Z,8.80
2022-11-09T02:18:58.403Z,8.90
2022-11-09T02:21:29.737Z,8.90
2022-11-09T02:23:58.093Z,9.00
2022-11-09T02:26:30.973Z,9.00
2022-11-09T02:29:00.693Z,9.10
2022-11-09T02:31:33.359Z,9.10
2022-11-09T02:34:04.815Z,9.20
2022-11-09T02:36:34.329Z,9.20
2022-11-09T02:39:03.064Z,9.20
2022-11-09T02:41:32.892Z,9.30
2022-11-09T02:44:01.461Z,9.30
2022-11-09T02:46:33.880Z,9.30
2022-11-09T02:49:02.412Z,9.40
2022-11-09T02:51:30.758Z,9.40
2022-11-09T02:54:00.022Z,9.50
2022-11-09T02:56:27.943Z,9.50
2022-11-09T02:58:56.079Z,9.60
2022-11-09T03:01:24.009Z,9.60
2022-11-09T03:03:51.994Z,9.70
2022-11-09T03:06:19.900Z,9.80
2022-11-09T03:08:48.016Z,9.80
2022-11-09T03:11:17.712Z,9.90
2022-11-09T03:13:45.592Z,9.90
2022-11-09T03:16:13.745Z,9.90
2022-11-09T03:18:41.646Z,9.90
2022-11-09T03:21:09.544Z,10.00
2022-11-09T03:23:37.448Z,10.00
2022-11-09T03:26:05.548Z,9.90
2022-11-09T03:28:34.856Z,9.90
2022-11-09T03:31:02.776Z,9.90
2022-11-09T03:33:30.652Z,9.90
2022-11-09T03:35:58.668Z,9.90
2022-11-09T03:38:26.607Z,9.90
2022-11-09T03:40:54.497Z,9.90
2022-11-09T03:43:22.915Z,9.90
2022-11-09T03:45:52.334Z,9.90
2022-11-09T03:48:20.364Z,9.90
2022-11-09T03:50:48.337Z,9.90
2022-11-09T03:53:16.270Z,9.90
2022-11-09T03:55:44.176Z,9.90
2022-11-09T03:58:13.304Z,9.90
2022-11-09T04:00:41.519Z,9.90
2022-11-09T04:03:10.782Z,9.90
2022-11-09T04:05:38.685Z,9.90
2022-11-09T04:08:06.790Z,9.90
2022-11-09T04:10:34.780Z,9.90
2022-11-09T04:13:02.693Z,9.90
2022-11-09T04:15:30.631Z,9.90
2022-11-09T04:17:59.717Z,9.80
2022-11-09T04:20:31.644Z,9.70
2022-11-09T04:23:01.526Z,9.60
2022-11-09T04:25:34.472Z,9.60
2022-11-09T04:28:03.290Z,9.60
2022-11-09T04:30:33.377Z,9.60
2022-11-09T04:33:02.435Z,9.60
2022-11-09T04:35:33.637Z,9.70
2022-11-09T04:38:03.525Z,9.70
2022-11-09T04:40:33.512Z,9.80
2022-11-09T04:43:01.939Z,9.80
2022-11-09T04:45:29.920Z,9.80
2022-11-09T04:47:59.850Z,9.70
2022-11-09T04:50:28.431Z,9.70
2022-11-09T04:53:07.921Z,9.70
2022-11-09T04:55:36.383Z,9.70
2022-11-09T04:58:04.628Z,9.80
2022-11-09T05:00:33.380Z,9.80
2022-11-09T05:03:02.198Z,9.80
2022-11-09T05:05:33.128Z,9.80
2022-11-09T05:08:02.392Z,9.80
2022-11-09T05:10:30.317Z,9.80
2022-11-09T05:13:01.688Z,9.80
2022-11-09T05:15:29.877Z,9.80
2022-11-09T05:17:58.161Z,9.80
2022-11-09T05:20:26.336Z,9.80
2022-11-09T05:23:11.892Z,9.80
2022-11-09T05:25:41.128Z,9.70
2022-11-09T05:28:09.744Z,9.80
2022-11-09T05:30:37.829Z,9.80
2022-11-09T05:33:05.796Z,9.80
2022-11-09T05:35:33.804Z,9.80
2022-11-09T05:38:01.710Z,9.80
2022-11-09T05:40:29.768Z,9.80
2022-11-09T05:42:59.005Z,9.80
2022-11-09T05:45:43.776Z,9.80
2022-11-09T05:48:12.949Z,9.80
2022-11-09T05:50:42.525Z,9.80
2022-11-09T05:53:11.297Z,9.80
2022-11-09T05:55:39.471Z,9.80
2022-11-09T05:58:09.100Z,9.80
2022-11-09T06:00:37.052Z,9.90
2022-11-09T06:03:05.995Z,9.90
2022-11-09T06:05:34.591Z,9.90
2022-11-09T06:08:05.988Z,10.00
2022-11-09T06:10:34.205Z,10.00
2022-11-09T06:13:02.291Z,10.00
2022-11-09T06:15:31.564Z,10.10
2022-11-09T06:17:59.974Z,10.10
2022-11-09T06:20:29.003Z,10.00
2022-11-09T06:23:02.769Z,10.10
2022-11-09T06:25:32.776Z,10.10
2022-11-09T06:28:00.956Z,9.90
2022-11-09T06:30:29.027Z,9.90
2022-11-09T06:33:02.173Z,9.90
2022-11-09T06:35:30.792Z,9.90
2022-11-09T06:37:59.287Z,9.80
2022-11-09T06:40:27.544Z,9.70
2022-11-09T06:42:58.278Z,9.60
2022-11-09T06:45:26.906Z,9.60
2022-11-09T06:47:56.740Z,9.50
2022-11-09T06:50:26.694Z,9.50
2022-11-09T06:52:58.081Z,9.40
2022-11-09T06:55:26.228Z,9.40
2022-11-09T06:57:54.328Z,9.50
2022-11-09T07:00:23.193Z,9.50
2022-11-09T07:02:51.175Z,9.40
2022-11-09T07:05:19.103Z,9.50
2022-11-09T07:07:48.434Z,9.50
2022-11-09T07:10:16.912Z,9.50
2022-11-09T07:12:44.829Z,9.50
2022-11-09T07:15:13.714Z,9.50
2022-11-09T07:17:41.896Z,9.50
2022-11-09T07:20:11.639Z,9.50
2022-11-09T07:22:40.090Z,9.50
2022-11-09T07:25:10.814Z,9.50
2022-11-09T07:27:38.820Z,9.50
2022-11-09T07:30:07.799Z,9.50
2022-11-09T07:33:06.935Z,9.50
2022-11-09T07:35:24.254Z,9.50
2022-11-09T07:37:52.171Z,9.50
2022-11-09T07:40:21.907Z,9.40
2022-11-09T07:42:49.776Z,9.40
2022-11-09T07:45:17.853Z,9.40
2022-11-09T07:47:45.725Z,9.40
2022-11-09T07:50:13.637Z,9.50
2022-11-09T07:52:41.555Z,9.50
2022-11-09T07:55:10.241Z,9.50
2022-11-09T07:57:39.468Z,9.50
2022-11-09T08:00:08.596Z,9.60
2022-11-09T08:02:36.505Z,9.70
2022-11-09T08:05:04.813Z,9.70
2022-11-09T08:07:33.198Z,9.70
2022-11-09T08:10:01.204Z,9.80
2022-11-09T08:12:32.967Z,9.80
2022-11-09T08:15:07.403Z,9.80
2022-11-09T08:17:35.330Z,9.80
2022-11-09T08:20:03.600Z,9.90
2022-11-09T08:22:31.499Z,9.90
2022-11-09T08:24:59.365Z,9.80
2022-11-09T08:27:27.259Z,9.90
2022-11-09T08:29:55.139Z,9.90
2022-11-09T08:32:24.373Z,9.90
2022-11-09T08:34:52.245Z,9.90
2022-11-09T08:37:20.136Z,9.80
2022-11-09T08:39:48.052Z,9.80
2022-11-09T08:42:15.971Z,9.80
2022-11-09T08:44:43.857Z,9.90
2022-11-09T08:47:11.726Z,10.00
2022-11-09T08:49:40.956Z,10.00
2022-11-09T08:52:08.913Z,10.00
2022-11-09T08:54:37.591Z,10.00
2022-11-09T08:57:05.560Z,10.10
2022-11-09T08:59:33.493Z,10.20
2022-11-09T09:02:01.482Z,10.30
2022-11-09T09:04:29.805Z,10.40
2022-11-09T09:07:00.204Z,10.40
2022-11-09T09:09:28.292Z,10.40
2022-11-09T09:11:56.190Z,10.50
2022-11-09T09:14:24.221Z,10.50
2022-11-09T09:16:52.132Z,10.60
2022-11-09T09:19:20.275Z,10.60
2022-11-09T09:21:48.170Z,10.60
2022-11-09T09:24:17.436Z,10.70
2022-11-09T09:26:46.004Z,10.60
2022-11-09T09:29:14.863Z,10.70
2022-11-09T09:31:42.833Z,10.70
2022-11-09T09:34:11.174Z,10.60
2022-11-09T09:36:44.688Z,10.60
2022-11-09T09:39:14.302Z,10.50
2022-11-09T09:41:51.993Z,10.50
2022-11-09T09:44:26.205Z,10.40
2022-11-09T09:46:59.793Z,10.30
2022-11-09T09:49:31.360Z,10.40
2022-11-09T09:52:05.111Z,10.40
2022-11-09T09:54:37.660Z,10.50
2022-11-09T09:57:16.468Z,10.50
2022-11-09T09:59:48.378Z,10.60
2022-11-09T10:02:23.572Z,10.70
2022-11-09T10:04:52.404Z,10.70
2022-11-09T10:07:26.616Z,10.80
2022-11-09T10:10:18.177Z,10.80
2022-11-09T10:13:06.761Z,10.80
2022-11-09T10:15:39.534Z,10.90
2022-11-09T10:18:22.972Z,11.00
2022-11-09T10:21:08.424Z,11.10
2022-11-09T10:23:42.553Z,11.30
2022-11-09T10:26:17.728Z,11.60
2022-11-09T10:31:41.962Z,12.00
2022-11-09T10:34:18.408Z,12.20
2022-11-09T10:36:52.576Z,12.30
2022-11-09T10:39:23.793Z,12.50
2022-11-09T10:41:52.093Z,12.50
2022-11-09T10:44:21.454Z,12.50
2022-11-09T10:47:07.052Z,12.40
2022-11-09T10:49:35.172Z,12.30
2022-11-09T10:52:03.999Z,12.30
2022-11-09T10:54:35.044Z,12.30
2022-11-09T10:57:13.967Z,12.30
2022-11-09T10:59:48.352Z,12.40
2022-11-09T11:02:45.069Z,12.50
2022-11-09T11:05:39.977Z,12.50
2022-11-09T11:08:33.000Z,12.50
2022-11-09T11:11:33.692Z,12.50
2022-11-09T11:14:18.396Z,12.60
2022-11-09T11:16:52.812Z,12.50
2022-11-09T11:19:34.407Z,12.60
2022-11-09T11:22:22.902Z,12.60
2022-11-09T11:24:56.860Z,12.60
2022-11-09T11:27:29.940Z,12.60
2022-11-09T11:30:06.261Z,12.70
2022-11-09T11:32:35.753Z,12.90
2022-11-09T11:35:06.399Z,12.90
2022-11-09T11:37:49.997Z,13.00
2022-11-09T11:40:22.212Z,13.30
2022-11-09T11:43:14.902Z,14.00
2022-11-09T11:45:47.600Z,15.20
2022-11-09T11:48:32.809Z,17.00
2022-11-09T11:51:10.965Z,18.90
2022-11-09T11:53:54.650Z,20.80
2022-11-09T11:56:27.168Z,22.90
2022-11-09T11:59:23.696Z,24.30
2022-11-09T12:02:14.191Z,24.60
2022-11-09T12:05:00.649Z,25.20
2022-11-09T12:07:39.355Z,24.60
2022-11-09T12:10:23.400Z,23.20
2022-11-09T12:13:01.170Z,21.70
2022-11-09T12:15:43.737Z,20.40
2022-11-09T12:18:29.278Z,20.40
2022-11-09T12:21:12.948Z,21.00
2022-11-09T12:23:59.344Z,21.40
2022-11-09T12:26:47.733Z,21.40
2022-11-09T12:29:27.936Z,20.50
2022-11-09T12:32:10.556Z,19.50
2022-11-09T12:34:45.215Z,18.50
2022-11-09T12:37:17.284Z,17.70
2022-11-09T12:39:47.764Z,17.10
2022-11-09T12:42:21.228Z,16.80
2022-11-09T12:44:58.265Z,16.60
2022-11-09T12:47:32.314Z,16.60
2022-11-09T12:50:00.247Z,16.80
2022-11-09T12:52:31.054Z,18.20
2022-11-09T12:55:02.214Z,20.40
2022-11-09T12:57:33.181Z,22.20
2022-11-09T13:00:02.557Z,22.70
2022-11-09T13:02:32.767Z,22.50
2022-11-09T13:05:02.251Z,22.00
2022-11-09T13:07:49.707Z,20.70
2022-11-09T13:10:31.048Z,19.50
2022-11-09T13:13:20.659Z,18.50
2022-11-09T13:16:14.263Z,17.70
2022-11-09T13:18:53.377Z,17.00
2022-11-09T13:21:36.649Z,16.50
2022-11-09T13:24:53.471Z,16.20
2022-11-09T13:27:44.550Z,15.90
2022-11-09T13:30:49.041Z,15.60
2022-11-09T13:33:23.749Z,15.50
2022-11-09T13:36:21.721Z,15.40
2022-11-09T13:39:27.043Z,15.30
2022-11-09T13:41:55.033Z,15.20
2022-11-09T13:44:27.486Z,15.10
2022-11-09T13:46:55.860Z,15.00
2022-11-09T13:49:46.905Z,14.90
2022-11-09T13:52:58.633Z,14.80
2022-11-09T13:55:33.183Z,14.80
2022-11-09T13:58:06.090Z,14.80
2022-11-09T14:00:35.326Z,14.80
2022-11-09T14:03:06.603Z,14.70
2022-11-09T14:05:38.470Z,14.60
2022-11-09T14:08:06.878Z,14.40
2022-11-09T14:10:51.370Z,14.30
2022-11-09T14:13:45.352Z,14.20
2022-11-09T14:16:25.219Z,14.20
2022-11-09T14:19:04.596Z,14.10
2022-11-09T14:21:45.077Z,14.00
2022-11-09T14:24:18.240Z,13.90
2022-11-09T14:27:03.816Z,13.90
2022-11-09T14:29:33.077Z,13.80
2022-11-09T14:32:04.232Z,13.80
2022-11-09T14:34:32.132Z,13.70
2022-11-09T14:37:04.748Z,13.70
2022-11-09T14:39:34.975Z,13.60
2022-11-09T14:42:02.885Z,13.60
2022-11-09T14:44:35.531Z,13.50
2022-11-09T14:47:05.850Z,13.50
2022-11-09T14:49:33.964Z,13.40
2022-11-09T14:52:02.901Z,13.40
2022-11-09T14:54:30.977Z,13.40
2022-11-09T14:56:59.016Z,13.30
2022-11-09T14:59:31.093Z,13.20
2022-11-09T15:02:01.636Z,13.20
2022-11-09T15:04:31.022Z,13.20
2022-11-09T15:07:02.364Z,13.20
2022-11-09T15:09:35.748Z,13.10
2022-11-09T15:12:04.223Z,13.00
2022-11-09T15:14:34.573Z,13.00
2022-11-09T15:17:08.114Z,12.90
2022-11-09T15:19:39.743Z,12.90
2022-11-09T15:22:22.497Z,12.90
2022-11-09T15:24:50.349Z,12.80
2022-11-09T15:27:32.559Z,12.80
2022-11-09T15:30:00.484Z,12.80
2022-11-09T15:32:28.870Z,12.80
2022-11-09T15:34:59.955Z,12.80
2022-11-09T15:37:30.196Z,12.80
2022-11-09T15:39:59.395Z,12.80
2022-11-09T15:42:28.212Z,12.80
2022-11-09T15:44:57.895Z,12.80
2022-11-09T15:47:32.367Z,12.80
2022-11-09T15:50:03.067Z,12.70
2022-11-09T15:52:30.931Z,12.70
2022-11-09T15:54:58.822Z,12.70
2022-11-09T15:57:26.684Z,12.60
2022-11-09T15:59:54.614Z,12.60
2022-11-09T16:02:22.480Z,12.70
2022-11-09T16:04:50.370Z,12.60
2022-11-09T16:07:19.617Z,12.60
2022-11-09T16:09:47.515Z,12.60
2022-11-09T16:12:15.383Z,12.60
2022-11-09T16:14:43.236Z,12.50
2022-11-09T16:17:11.156Z,12.50
2022-11-09T16:19:39.511Z,12.50
2022-11-09T16:22:09.834Z,12.50
2022-11-09T16:24:40.294Z,12.50
2022-11-09T16:27:22.286Z,12.50
2022-11-09T16:29:57.261Z,12.50
2022-11-09T16:32:25.210Z,12.40
2022-11-09T16:35:15.583Z,12.40
2022-11-09T16:37:42.078Z,12.40
2022-11-09T16:40:14.262Z,12.40
2022-11-09T16:42:42.368Z,12.40
2022-11-09T16:45:13.238Z,12.30
2022-11-09T16:47:45.112Z,12.30
2022-11-09T16:50:13.360Z,12.30
2022-11-09T16:52:41.249Z,12.30
2022-11-09T16:55:11.492Z,12.30
2022-11-09T16:57:39.460Z,12.30
2022-11-09T17:00:09.335Z,12.30
2022-11-09T17:02:37.241Z,12.30
2022-11-09T17:05:05.817Z,12.30
2022-11-09T17:07:42.193Z,12.30
2022-11-09T17:10:12.617Z,12.30
2022-11-09T17:12:40.680Z,12.30
2022-11-09T17:15:09.966Z,12.30
2022-11-09T17:17:37.849Z,12.30
2022-11-09T17:20:07.023Z,12.30
2022-11-09T17:22:34.956Z,12.30
2022-11-09T17:25:03.021Z,12.30
2022-11-09T17:27:32.227Z,12.30
2022-11-09T17:30:00.141Z,12.30
2022-11-09T17:32:28.224Z,12.30
2022-11-09T17:34:56.329Z,12.30
2022-11-09T17:37:24.220Z,12.30
2022-11-09T17:39:52.132Z,12.30
2022-11-09T17:42:19.980Z,12.20
2022-11-09T17:44:49.203Z,12.30
2022-11-09T17:47:17.078Z,12.30
2022-11-09T17:49:44.928Z,12.20
2022-11-09T17:52:12.817Z,12.20
2022-11-09T17:54:40.673Z,12.20
2022-11-09T17:57:08.520Z,12.20
2022-11-09T17:59:36.395Z,12.20
2022-11-09T18:02:05.680Z,12.20
2022-11-09T18:04:33.607Z,12.20
2022-11-09T18:07:01.518Z,12.10
2022-11-09T18:09:44.708Z,12.20
2022-11-09T18:12:13.058Z,12.10
2022-11-09T18:14:40.924Z,12.10
2022-11-09T18:17:10.152Z,12.10
2022-11-09T18:19:38.386Z,12.10
2022-11-09T18:22:11.469Z,12.20
2022-11-09T18:24:40.500Z,12.20
2022-11-09T18:27:08.387Z,12.20
2022-11-09T18:29:36.288Z,12.30
2022-11-09T18:32:04.262Z,12.30
2022-11-09T18:34:33.483Z,12.30
2022-11-09T18:37:01.354Z,12.30
2022-11-09T18:39:29.217Z,12.40
2022-11-09T18:42:00.184Z,12.40
2022-11-09T18:44:28.080Z,12.40
2022-11-09T18:46:59.466Z,12.50
2022-11-09T18:49:30.089Z,12.40
2022-11-09T18:51:59.668Z,12.40
2022-11-09T18:54:28.837Z,12.40
2022-11-09T18:56:56.812Z,12.40
2022-11-09T18:59:24.711Z,12.40
2022-11-09T19:01:52.587Z,12.30
2022-11-09T19:04:20.493Z,12.40
2022-11-09T19:06:48.647Z,12.40
2022-11-09T19:09:31.481Z,12.40
2022-11-09T19:12:01.340Z,12.30
2022-11-09T19:14:29.984Z,12.40
2022-11-09T19:16:57.885Z,12.40
2022-11-09T19:19:27.027Z,12.50
2022-11-09T19:21:56.353Z,12.40
2022-11-09T19:24:28.475Z,12.40
2022-11-09T19:26:56.395Z,12.50
2022-11-09T19:29:24.251Z,12.40
2022-11-09T19:31:52.140Z,12.50
2022-11-09T19:34:21.427Z,12.50
2022-11-09T19:36:49.389Z,12.50
2022-11-09T19:39:18.135Z,12.40
2022-11-09T19:41:47.893Z,12.50
2022-11-09T19:44:17.902Z,12.40
2022-11-09T19:46:46.204Z,12.40
2022-11-09T19:49:14.155Z,12.40
2022-11-09T19:51:42.063Z,12.40
2022-11-09T19:54:12.648Z,12.40
2022-11-09T19:56:40.528Z,12.40
2022-11-09T19:59:14.096Z,12.40
2022-11-09T20:01:42.205Z,12.40
2022-11-09T20:04:11.316Z,12.40
2022-11-09T20:06:40.328Z,12.40
2022-11-09T20:09:08.323Z,12.40
2022-11-09T20:11:53.614Z,12.30
2022-11-09T20:14:23.044Z,12.30
2022-11-09T20:16:50.977Z,12.30
2022-11-09T20:19:19.140Z,12.20
2022-11-09T20:21:47.445Z,12.20
2022-11-09T20:24:15.324Z,12.30
2022-11-09T20:26:43.938Z,12.20
2022-11-09T20:29:11.913Z,12.20
2022-11-09T20:31:41.309Z,12.20
2022-11-09T20:34:09.339Z,12.20
2022-11-09T20:36:37.225Z,12.20
2022-11-09T20:39:05.418Z,12.20
2022-11-09T20:41:33.804Z,12.10
2022-11-09T20:44:01.694Z,12.20
2022-11-09T20:46:35.467Z,12.10
2022-11-09T20:49:05.332Z,12.10
2022-11-09T20:51:33.316Z,12.10
2022-11-09T20:54:06.881Z,12.10
2022-11-09T20:56:36.975Z,12.10
2022-11-09T20:59:05.490Z,12.10
2022-11-09T21:01:33.694Z,12.10
2022-11-09T21:04:02.963Z,12.10
2022-11-09T21:06:32.371Z,12.10
2022-11-09T21:09:01.664Z,12.10
2022-11-09T21:11:35.479Z,12.10
2022-11-09T21:14:04.146Z,12.10
2022-11-09T21:16:32.040Z,12.10
2022-11-09T21:18:59.879Z,12.10
2022-11-09T21:21:32.061Z,12.10
2022-11-09T21:24:22.212Z,12.20
2022-11-09T21:27:07.654Z,12.20
2022-11-09T21:29:53.665Z,12.10
2022-11-09T21:32:23.028Z,12.20
2022-11-09T21:34:52.489Z,12.20
2022-11-09T21:37:20.372Z,12.20
2022-11-09T21:39:49.609Z,12.20
2022-11-09T21:42:17.480Z,12.20
2022-11-09T21:44:45.330Z,12.20
2022-11-09T21:47:13.239Z,12.20
2022-11-09T21:49:41.158Z,12.20
2022-11-09T21:52:09.028Z,12.20
2022-11-09T21:54:36.914Z,12.20
2022-11-09T21:57:06.301Z,12.20
2022-11-09T21:59:34.206Z,12.20
2022-11-09T22:02:02.073Z,12.20
2022-11-09T22:04:29.951Z,12.20
2022-11-09T22:06:57.938Z,12.20
2022-11-09T22:09:25.898Z,12.10
2022-11-09T22:12:11.431Z,12.20
2022-11-09T22:14:58.260Z,12.10
2022-11-09T22:17:26.164Z,12.10
2022-11-09T22:20:11.481Z,12.10
2022-11-09T22:22:39.340Z,12.00
2022-11-09T22:25:08.477Z,12.10
2022-11-09T22:27:36.336Z,12.00
2022-11-09T22:30:06.673Z,12.00
2022-11-09T22:32:34.559Z,12.00
2022-11-09T22:35:02.435Z,12.00
2022-11-09T22:37:30.326Z,12.00
2022-11-09T22:39:58.487Z,12.00
2022-11-09T22:42:26.365Z,12.00
2022-11-09T22:44:54.247Z,12.00
2022-11-09T22:47:23.690Z,11.90
2022-11-09T22:49:51.643Z,12.00
2022-11-09T22:52:19.496Z,11.90
2022-11-09T22:54:47.364Z,11.90
2022-11-09T22:57:15.248Z,11.90
2022-11-09T22:59:43.108Z,11.90
2022-11-09T23:02:10.986Z,11.90
2022-11-09T23:04:40.205Z,11.90
2022-11-09T23:07:08.137Z,11.90
2022-11-09T23:09:36.049Z,11.90
2022-11-09T23:12:04.010Z,11.80
2022-11-09T23:14:49.224Z,11.80
2022-11-09T23:17:31.016Z,11.80
2022-11-09T23:20:00.223Z,11.80
2022-11-09T23:22:28.092Z,11.80
2022-11-09T23:25:13.360Z,11.80
2022-11-09T23:27:41.273Z,11.80
2022-11-09T23:30:09.715Z,11.70
2022-11-09T23:32:37.563Z,11.70
2022-11-09T23:35:08.125Z,11.70
2022-11-09T23:37:36.022Z,11.70
2022-11-09T23:40:04.464Z,11.70
2022-11-09T23:42:32.319Z,11.70
2022-11-09T23:45:00.430Z,11.70
2022-11-09T23:47:28.281Z,11.70
2022-11-09T23:49:56.185Z,11.60
2022-11-09T23:52:25.400Z,11.70
2022-11-09T23:54:53.288Z,11.70
2022-11-09T23:57:21.176Z,11.70
2022-11-09T23:59:49.040Z,11.70
